Time;durP1;ratioP1;P1;durP2;ratioP2;P2;SDS_P1;SDS_P2;PMS_P1;PMS_P2;Temp;Humidity;BMP_temperature;BMP_pressure;BME280_temperature;BME280_humidity;BME280_pressure;Samples;Min_cycle;Max_cycle;Signal;HPM_P1;HPM_P2
2023/01/05 00:01:11;;;;;;;14.13;6.53;;;;;;;;;;5102265;28;20028;-87
2023/01/05 00:03:37;;;;;;;10.75;5.40;;;;;;;;;;5087277;28;20034;-87
2023/01/05 00:06:05;;;;;;;11.40;5.82;;;;;;;;;;5090041;28;20095;-87
2023/01/05 00:08:31;;;;;;;10.50;5.20;;;;;;;;;;5099730;28;20015;-87
2023/01/05 00:24:40;;;;;;;7.65;4.85;;;;;;;;;;5103125;28;20080;-88
2023/01/05 00:27:06;;;;;;;14.15;6.03;;;;;;;;;;5087581;28;20023;-87
2023/01/05 00:29:31;;;;;;;10.07;6.28;;;;;;;;;;5083378;28;20099;-88
2023/01/05 00:31:57;;;;;;;7.35;5.63;;;;;;;;;;5083127;28;20108;-88
2023/01/05 00:34:22;;;;;;;13.45;6.22;;;;;;;;;;5083734;28;20028;-88
2023/01/05 00:36:47;;;;;;;8.27;6.32;;;;;;;;;;5082551;28;20052;-88
2023/01/05 00:39:13;;;;;;;7.88;4.82;;;;;;;;;;5103579;28;20024;-88
2023/01/05 00:41:38;;;;;;;7.47;4.55;;;;;;;;;;5102807;28;20053;-87
2023/01/05 00:44:04;;;;;;;9.05;5.63;;;;;;;;;;5101060;28;20765;-87
2023/01/05 00:46:29;;;;;;;18.08;6.60;;;;;;;;;;5085533;28;20024;-87
2023/01/05 00:48:55;;;;;;;11.77;5.25;;;;;;;;;;5084812;28;20027;-88
2023/01/05 00:51:20;;;;;;;12.77;6.72;;;;;;;;;;5102433;28;20027;-87
2023/01/05 00:53:47;;;;;;;7.93;5.70;;;;;;;;;;5104579;28;20065;-89
2023/01/05 00:56:13;;;;;;;10.25;5.28;;;;;;;;;;5104340;28;20065;-88
2023/01/05 00:58:38;;;;;;;10.73;5.60;;;;;;;;;;5080310;28;20027;-87
2023/01/05 01:01:11;;;;;;;7.93;4.15;;;;;;;;;;5083589;28;20499;-88
2023/01/05 01:03:37;;;;;;;10.18;5.53;;;;;;;;;;5118791;28;20034;-88
2023/01/05 01:06:02;;;;;;;6.68;4.45;;;;;;;;;;5084683;28;20549;-88
2023/01/05 01:08:28;;;;;;;8.70;4.82;;;;;;;;;;5100124;28;20904;-87
2023/01/05 01:10:53;;;;;;;9.45;5.13;;;;;;;;;;5102865;28;20054;-88
2023/01/05 01:13:19;;;;;;;9.70;5.22;;;;;;;;;;5085736;28;20157;-88
2023/01/05 01:15:45;;;;;;;7.82;5.13;;;;;;;;;;5087240;28;20431;-89
2023/01/05 01:18:11;;;;;;;8.57;4.97;;;;;;;;;;5098846;28;20024;-88
2023/01/05 01:20:37;;;;;;;7.18;4.30;;;;;;;;;;5082696;28;20059;-89
2023/01/05 01:23:03;;;;;;;9.90;4.88;;;;;;;;;;5083066;28;20020;-87
2023/01/05 01:25:29;;;;;;;8.68;4.07;;;;;;;;;;5086043;28;20024;-89
2023/01/05 01:27:55;;;;;;;7.05;4.60;;;;;;;;;;5084758;28;20047;-88
2023/01/05 01:30:20;;;;;;;8.20;4.05;;;;;;;;;;5080271;28;20107;-89
2023/01/05 01:32:45;;;;;;;6.88;4.32;;;;;;;;;;5102029;28;20023;-89
2023/01/05 01:35:11;;;;;;;11.10;5.25;;;;;;;;;;5107365;28;20384;-87
2023/01/05 01:37:36;;;;;;;6.53;4.13;;;;;;;;;;5084611;28;20034;-87
2023/01/05 01:40:02;;;;;;;8.05;4.57;;;;;;;;;;5107342;28;20023;-87
2023/01/05 01:42:28;;;;;;;7.38;4.20;;;;;;;;;;5109944;28;20485;-88
2023/01/05 01:44:55;;;;;;;7.25;4.75;;;;;;;;;;5104501;28;20103;-87
2023/01/05 01:47:26;;;;;;;5.60;3.80;;;;;;;;;;5107050;28;20031;-90
2023/01/05 01:49:52;;;;;;;8.07;4.90;;;;;;;;;;5106884;28;20024;-89
2023/01/05 01:52:20;;;;;;;6.13;3.95;;;;;;;;;;5107619;28;20055;-89
2023/01/05 01:54:45;;;;;;;6.38;3.72;;;;;;;;;;5104377;28;20031;-89
2023/01/05 01:57:12;;;;;;;6.82;4.13;;;;;;;;;;5086469;28;20400;-88
2023/01/05 01:59:37;;;;;;;5.10;2.80;;;;;;;;;;5085946;28;20027;-88
2023/01/05 02:02:03;;;;;;;5.70;3.45;;;;;;;;;;5123369;27;20035;-88
2023/01/05 02:04:31;;;;;;;6.82;3.88;;;;;;;;;;5108941;28;20024;-88
2023/01/05 02:06:57;;;;;;;4.60;3.70;;;;;;;;;;5107366;28;20449;-90
2023/01/05 02:09:23;;;;;;;10.30;5.55;;;;;;;;;;5088830;28;20028;-89
2023/01/05 02:12:01;;;;;;;7.30;3.90;;;;;;;;;;5105919;28;20076;-88
2023/01/05 02:14:37;;;;;;;7.60;4.13;;;;;;;;;;5087970;28;20016;-87
2023/01/05 02:17:11;;;;;;;8.95;5.30;;;;;;;;;;5084080;28;20097;-88
2023/01/05 02:20:15;;;;;;;6.60;4.50;;;;;;;;;;5107726;28;20031;-87
2023/01/05 02:23:04;;;;;;;9.52;3.92;;;;;;;;;;5080867;28;20446;-89
2023/01/05 02:25:33;;;;;;;4.93;3.53;;;;;;;;;;5089113;28;20027;-88
2023/01/05 02:28:23;;;;;;;6.90;4.13;;;;;;;;;;5088752;28;20043;-89
2023/01/05 02:31:13;;;;;;;10.07;5.32;;;;;;;;;;5121694;27;20019;-88
2023/01/05 02:34:06;;;;;;;9.00;4.30;;;;;;;;;;5120777;27;20062;-88
2023/01/05 02:36:45;;;;;;;6.97;4.88;;;;;;;;;;5105113;28;20464;-87
2023/01/05 02:39:15;;;;;;;5.25;4.57;;;;;;;;;;5086466;28;20498;-87
2023/01/05 02:41:56;;;;;;;8.50;4.22;;;;;;;;;;5108799;28;20036;-88
2023/01/05 02:44:22;;;;;;;10.13;4.43;;;;;;;;;;5107031;28;20028;-89
2023/01/05 02:47:04;;;;;;;9.50;4.00;;;;;;;;;;5103468;28;20476;-89
2023/01/05 02:49:33;;;;;;;11.10;4.53;;;;;;;;;;5106121;28;20028;-89
2023/01/05 02:52:04;;;;;;;8.68;5.70;;;;;;;;;;5085636;28;20024;-88
2023/01/05 02:55:04;;;;;;;7.80;4.78;;;;;;;;;;5083595;28;20024;-87
2023/01/05 02:57:49;;;;;;;5.30;3.45;;;;;;;;;;5075380;28;20032;-86
2023/01/05 03:00:40;;;;;;;7.75;4.28;;;;;;;;;;5106287;28;20031;-89
2023/01/05 03:03:11;;;;;;;7.10;5.75;;;;;;;;;;5083315;28;20023;-88
2023/01/05 03:06:25;;;;;;;8.40;3.65;;;;;;;;;;5102853;28;20034;-88
2023/01/05 03:08:55;;;;;;;8.50;4.18;;;;;;;;;;5079894;28;20035;-88
2023/01/05 03:14:14;;;;;;;5.82;3.38;;;;;;;;;;5104418;28;20085;-88
2023/01/05 03:16:39;;;;;;;7.72;4.80;;;;;;;;;;5104807;28;20032;-87
2023/01/05 03:35:56;;;;;;;7.70;3.65;;;;;;;;;;5101134;28;20115;-89
2023/01/05 03:38:34;;;;;;;9.30;5.13;;;;;;;;;;5104018;28;20028;-89
2023/01/05 03:41:03;;;;;;;5.75;3.85;;;;;;;;;;5084939;28;20034;-87
2023/01/05 03:43:33;;;;;;;6.68;4.15;;;;;;;;;;5093250;28;20028;-89
2023/01/05 03:45:58;;;;;;;;;;;;;;;;;;5089365;28;20399;-89
2023/01/05 03:48:25;;;;;;;10.38;4.20;;;;;;;;;;5081126;28;19912;-87
2023/01/05 03:50:52;;;;;;;7.13;4.85;;;;;;;;;;5083295;28;20053;-87
2023/01/05 03:53:17;;;;;;;8.15;4.80;;;;;;;;;;5083081;28;20110;-87
2023/01/05 03:55:43;;;;;;;11.10;4.93;;;;;;;;;;5082862;28;20084;-88
2023/01/05 03:58:08;;;;;;;6.47;3.83;;;;;;;;;;5105196;28;20106;-88
2023/01/05 04:00:34;;;;;;;3.65;3.15;;;;;;;;;;5105293;28;20020;-87
2023/01/05 04:02:59;;;;;;;6.20;3.72;;;;;;;;;;5083420;28;20126;-87
2023/01/05 04:05:25;;;;;;;6.72;4.20;;;;;;;;;;5091702;28;20036;-88
2023/01/05 04:07:50;;;;;;;6.28;4.18;;;;;;;;;;5083866;28;20053;-89
2023/01/05 04:10:16;;;;;;;7.40;5.25;;;;;;;;;;5117348;27;20039;-88
2023/01/05 04:12:41;;;;;;;8.25;4.05;;;;;;;;;;5104883;28;20112;-88
2023/01/05 04:15:07;;;;;;;4.75;3.80;;;;;;;;;;5085643;28;20032;-87
2023/01/05 04:17:33;;;;;;;5.38;3.85;;;;;;;;;;5086874;28;20433;-88
2023/01/05 04:19:58;;;;;;;9.38;4.57;;;;;;;;;;5084099;28;20015;-87
2023/01/05 04:22:24;;;;;;;7.47;5.50;;;;;;;;;;5109800;27;20032;-88
2023/01/05 04:24:49;;;;;;;8.95;4.45;;;;;;;;;;5079489;28;20023;-88
2023/01/05 04:27:15;;;;;;;7.22;4.55;;;;;;;;;;5086491;28;20498;-87
2023/01/05 04:29:40;;;;;;;7.65;5.00;;;;;;;;;;5084134;28;20483;-88
2023/01/05 04:32:05;;;;;;;8.63;4.68;;;;;;;;;;5101305;28;20028;-88
2023/01/05 04:34:31;;;;;;;9.55;4.55;;;;;;;;;;5085485;28;20093;-88
2023/01/05 04:36:56;;;;;;;8.90;4.68;;;;;;;;;;5105724;28;20074;-86
2023/01/05 04:39:22;;;;;;;4.85;3.53;;;;;;;;;;5102760;28;20103;-87
2023/01/05 04:41:49;;;;;;;8.45;5.15;;;;;;;;;;5103781;28;20505;-88
2023/01/05 04:44:14;;;;;;;4.75;3.72;;;;;;;;;;5084107;28;20020;-88
2023/01/05 04:46:40;;;;;;;8.90;4.63;;;;;;;;;;5086613;28;20045;-88
2023/01/05 04:49:05;;;;;;;8.15;5.03;;;;;;;;;;5085265;28;20357;-88
2023/01/05 04:51:31;;;;;;;6.03;4.65;;;;;;;;;;5086789;28;20027;-88
2023/01/05 04:53:56;;;;;;;8.73;5.10;;;;;;;;;;5084620;28;21239;-89
2023/01/05 04:56:22;;;;;;;5.30;4.18;;;;;;;;;;5085409;28;20028;-87
2023/01/05 04:58:47;;;;;;;7.68;4.45;;;;;;;;;;5083405;28;20032;-89
2023/01/05 05:01:13;;;;;;;10.30;5.15;;;;;;;;;;5101462;28;20028;-88
2023/01/05 05:03:38;;;;;;;6.50;4.60;;;;;;;;;;5102323;28;20028;-87
2023/01/05 05:06:04;;;;;;;7.20;4.53;;;;;;;;;;5088007;28;20703;-88
2023/01/05 05:08:29;;;;;;;8.07;5.90;;;;;;;;;;5118165;28;20380;-86
2023/01/05 05:10:55;;;;;;;11.55;5.57;;;;;;;;;;5104358;28;20023;-85
2023/01/05 05:13:20;;;;;;;16.98;9.50;;;;;;;;;;5109518;28;20034;-86
2023/01/05 05:15:46;;;;;;;12.20;7.47;;;;;;;;;;5104349;28;20059;-87
2023/01/05 05:18:11;;;;;;;18.85;9.02;;;;;;;;;;5106386;28;20028;-87
2023/01/05 05:20:41;;;;;;;9.10;5.88;;;;;;;;;;5104928;28;20035;-87
2023/01/05 05:23:06;;;;;;;6.60;4.57;;;;;;;;;;5087597;28;20038;-86
2023/01/05 05:25:32;;;;;;;7.43;4.00;;;;;;;;;;5090042;28;20028;-87
2023/01/05 05:27:57;;;;;;;12.13;4.55;;;;;;;;;;5083598;28;20054;-87
2023/01/05 05:30:23;;;;;;;7.07;4.35;;;;;;;;;;5102110;28;20463;-87
2023/01/05 05:32:48;;;;;;;8.18;4.93;;;;;;;;;;5101674;28;20031;-86
2023/01/05 05:35:14;;;;;;;6.88;4.25;;;;;;;;;;5086834;28;20452;-88
2023/01/05 05:37:39;;;;;;;5.90;5.03;;;;;;;;;;5107689;28;20016;-88
2023/01/05 05:40:05;;;;;;;12.75;5.35;;;;;;;;;;5089833;28;20031;-86
2023/01/05 05:42:30;;;;;;;9.32;5.65;;;;;;;;;;5087292;28;20028;-86
2023/01/05 05:44:56;;;;;;;8.30;3.63;;;;;;;;;;5100994;28;20036;-86
2023/01/05 05:47:21;;;;;;;6.00;3.65;;;;;;;;;;5084499;28;20024;-89
2023/01/05 05:49:47;;;;;;;10.30;3.75;;;;;;;;;;5089311;28;20073;-89
2023/01/05 05:52:12;;;;;;;7.60;4.43;;;;;;;;;;5103171;28;20073;-90
2023/01/05 05:54:37;;;;;;;13.00;4.15;;;;;;;;;;5109727;28;20024;-90
2023/01/05 05:57:03;;;;;;;5.88;3.70;;;;;;;;;;5086043;28;20059;-83
2023/01/05 05:59:28;;;;;;;4.72;3.25;;;;;;;;;;5102903;28;20032;-88
2023/01/05 06:01:54;;;;;;;6.55;3.67;;;;;;;;;;5099457;28;20078;-84
2023/01/05 06:04:19;;;;;;;2.67;2.47;;;;;;;;;;5103677;28;20031;-85
2023/01/05 06:06:45;;;;;;;3.63;2.33;;;;;;;;;;5083155;28;20031;-87
2023/01/05 06:09:10;;;;;;;3.88;2.42;;;;;;;;;;5105005;28;20110;-87
2023/01/05 06:11:35;;;;;;;4.40;2.03;;;;;;;;;;5099543;28;20089;-86
2023/01/05 06:14:01;;;;;;;2.65;2.35;;;;;;;;;;5087710;28;20469;-87
2023/01/05 06:16:29;;;;;;;4.00;2.58;;;;;;;;;;5103134;28;20500;-86
2023/01/05 06:18:54;;;;;;;3.88;3.20;;;;;;;;;;5102091;28;20035;-87
2023/01/05 06:21:20;;;;;;;5.45;3.10;;;;;;;;;;5086951;28;20031;-86
2023/01/05 06:23:46;;;;;;;7.45;3.47;;;;;;;;;;5115803;27;20032;-87
2023/01/05 06:26:12;;;;;;;6.18;3.17;;;;;;;;;;5082379;28;20380;-85
2023/01/05 06:28:37;;;;;;;4.60;2.30;;;;;;;;;;5086649;28;20047;-89
2023/01/05 06:31:03;;;;;;;7.38;2.25;;;;;;;;;;5085278;28;20455;-84
2023/01/05 06:33:28;;;;;;;3.28;2.17;;;;;;;;;;5114446;27;20484;-85
2023/01/05 06:35:54;;;;;;;10.57;4.88;;;;;;;;;;5089511;28;20096;-88
2023/01/05 06:38:20;;;;;;;6.10;3.97;;;;;;;;;;5085664;28;20028;-90
2023/01/05 06:40:46;;;;;;;6.35;3.30;;;;;;;;;;5084049;28;20050;-86
2023/01/05 06:43:11;;;;;;;3.13;2.33;;;;;;;;;;5088638;28;20023;-89
2023/01/05 06:45:37;;;;;;;7.25;3.28;;;;;;;;;;5084561;28;20020;-86
2023/01/05 06:48:03;;;;;;;4.28;2.35;;;;;;;;;;5087923;28;20051;-85
2023/01/05 06:50:29;;;;;;;3.60;2.47;;;;;;;;;;5079364;28;20483;-84
2023/01/05 06:52:55;;;;;;;5.82;3.08;;;;;;;;;;5088951;28;20015;-85
2023/01/05 06:55:23;;;;;;;4.35;3.10;;;;;;;;;;5105876;28;20030;-85
2023/01/05 06:57:49;;;;;;;5.30;3.38;;;;;;;;;;5085858;28;20356;-87
2023/01/05 07:00:15;;;;;;;4.18;2.58;;;;;;;;;;5115668;27;20019;-84
2023/01/05 07:02:41;;;;;;;7.28;3.85;;;;;;;;;;5103456;28;20031;-85
2023/01/05 07:05:07;;;;;;;10.70;4.82;;;;;;;;;;5107998;28;20023;-84
2023/01/05 07:07:34;;;;;;;4.93;3.53;;;;;;;;;;5107898;28;20046;-85
2023/01/05 07:09:59;;;;;;;7.47;4.47;;;;;;;;;;5086501;28;20035;-85
2023/01/05 07:12:25;;;;;;;6.13;3.45;;;;;;;;;;5101528;28;20020;-85
2023/01/05 07:14:50;;;;;;;9.82;3.63;;;;;;;;;;5089584;28;20023;-86
2023/01/05 07:17:15;;;;;;;4.93;3.50;;;;;;;;;;5107412;28;20047;-84
2023/01/05 07:19:41;;;;;;;7.80;4.30;;;;;;;;;;5100733;28;20483;-84
2023/01/05 07:22:06;;;;;;;8.20;4.50;;;;;;;;;;5123166;27;20490;-85
2023/01/05 07:24:32;;;;;;;7.70;4.78;;;;;;;;;;5104274;28;20020;-84
2023/01/05 07:26:58;;;;;;;11.68;6.68;;;;;;;;;;5098780;28;20383;-86
2023/01/05 07:29:24;;;;;;;14.73;8.35;;;;;;;;;;5107130;28;20027;-85
2023/01/05 07:31:51;;;;;;;10.35;6.47;;;;;;;;;;5099327;28;20030;-85
2023/01/05 07:34:20;;;;;;;11.88;7.35;;;;;;;;;;5110549;27;20054;-85
2023/01/05 07:36:46;;;;;;;15.52;9.35;;;;;;;;;;5085818;28;20434;-85
2023/01/05 07:39:12;;;;;;;8.43;6.40;;;;;;;;;;5088916;28;20115;-85
2023/01/05 07:41:38;;;;;;;17.00;8.75;;;;;;;;;;5098160;28;20115;-85
2023/01/05 07:44:03;;;;;;;15.30;7.47;;;;;;;;;;5095611;28;20099;-84
2023/01/05 07:46:30;;;;;;;10.43;6.65;;;;;;;;;;5083472;28;20057;-85
2023/01/05 07:48:56;;;;;;;11.98;6.60;;;;;;;;;;5099700;28;20871;-86
2023/01/05 07:51:21;;;;;;;7.93;5.15;;;;;;;;;;5092063;28;20031;-85
2023/01/05 07:53:54;;;;;;;7.88;4.82;;;;;;;;;;5101507;28;20036;-85
2023/01/05 07:56:19;;;;;;;9.70;5.82;;;;;;;;;;5102432;28;20031;-85
2023/01/05 07:58:45;;;;;;;9.40;5.90;;;;;;;;;;5077227;28;20028;-86
2023/01/05 08:01:12;;;;;;;10.20;5.75;;;;;;;;;;5119334;27;20046;-85
2023/01/05 08:03:38;;;;;;;8.63;5.97;;;;;;;;;;5096220;28;20027;-87
2023/01/05 08:06:16;;;;;;;9.80;5.63;;;;;;;;;;5079289;28;20519;-87
2023/01/05 08:08:41;;;;;;;16.00;6.75;;;;;;;;;;5082294;28;20020;-85
2023/01/05 08:11:09;;;;;;;7.13;5.20;;;;;;;;;;5099648;28;20031;-87
2023/01/05 08:16:19;;;;;;;8.90;4.38;;;;;;;;;;5107747;28;20034;-87
2023/01/05 08:18:44;;;;;;;7.07;4.50;;;;;;;;;;5098516;28;20075;-87
2023/01/05 08:21:10;;;;;;;8.18;4.45;;;;;;;;;;5085054;28;20035;-87
2023/01/05 08:23:37;;;;;;;7.65;4.40;;;;;;;;;;5081650;28;20418;-87
2023/01/05 08:26:11;;;;;;;7.25;3.97;;;;;;;;;;5080923;28;20019;-86
2023/01/05 08:28:39;;;;;;;6.45;3.72;;;;;;;;;;5076944;28;20047;-87
2023/01/05 08:31:25;;;;;;;8.68;5.18;;;;;;;;;;5101760;28;20051;-87
2023/01/05 08:33:56;;;;;;;7.68;4.32;;;;;;;;;;5095298;28;20032;-86
2023/01/05 08:36:22;;;;;;;9.68;6.35;;;;;;;;;;5084711;28;20027;-86
2023/01/05 08:38:54;;;;;;;7.60;5.25;;;;;;;;;;5104239;28;20081;-86
2023/01/05 08:41:28;;;;;;;6.55;4.15;;;;;;;;;;5086449;28;20189;-84
2023/01/05 08:43:55;;;;;;;6.85;4.22;;;;;;;;;;5098954;28;20110;-85
2023/01/05 08:46:23;;;;;;;8.02;4.55;;;;;;;;;;5101776;28;20031;-85
2023/01/05 08:48:50;;;;;;;10.77;5.70;;;;;;;;;;5102765;28;20027;-85
2023/01/05 08:51:17;;;;;;;7.93;5.15;;;;;;;;;;5083172;28;20471;-86
2023/01/05 08:53:42;;;;;;;10.30;4.88;;;;;;;;;;5100154;28;20487;-86
2023/01/05 08:56:09;;;;;;;7.22;4.43;;;;;;;;;;5082311;28;20079;-87
2023/01/05 08:58:38;;;;;;;10.15;5.85;;;;;;;;;;5093766;28;20112;-87
2023/01/05 09:01:13;;;;;;;9.00;4.15;;;;;;;;;;5078276;28;20494;-86
2023/01/05 09:03:39;;;;;;;7.43;4.93;;;;;;;;;;5103599;28;20428;-85
2023/01/05 09:06:08;;;;;;;9.25;3.63;;;;;;;;;;5100577;28;20107;-86
2023/01/05 09:08:34;;;;;;;6.72;3.97;;;;;;;;;;5075104;28;20027;-85
2023/01/05 09:11:18;;;;;;;8.02;4.43;;;;;;;;;;5100257;28;20050;-86
2023/01/05 09:13:54;;;;;;;9.90;4.43;;;;;;;;;;5094255;28;20020;-87
2023/01/05 09:16:22;;;;;;;7.88;3.90;;;;;;;;;;5079065;28;20383;-85
2023/01/05 09:18:47;;;;;;;6.95;3.78;;;;;;;;;;5089511;28;20020;-86
2023/01/05 09:21:13;;;;;;;6.05;3.38;;;;;;;;;;5079279;28;20028;-85
2023/01/05 09:23:40;;;;;;;8.82;3.50;;;;;;;;;;5076793;28;20024;-86
2023/01/05 09:26:10;;;;;;;6.20;4.30;;;;;;;;;;5097288;28;20057;-86
2023/01/05 09:28:36;;;;;;;4.55;3.25;;;;;;;;;;5096355;28;20055;-84
2023/01/05 09:31:20;;;;;;;4.15;2.75;;;;;;;;;;5079011;28;20111;-84
2023/01/05 09:33:46;;;;;;;4.90;3.53;;;;;;;;;;5090727;28;20027;-84
2023/01/05 09:36:12;;;;;;;5.20;3.10;;;;;;;;;;5101334;28;20024;-85
2023/01/05 09:38:38;;;;;;;5.68;3.72;;;;;;;;;;5103392;28;20076;-84
2023/01/05 09:41:12;;;;;;;6.47;3.72;;;;;;;;;;5095739;28;20036;-85
2023/01/05 09:43:40;;;;;;;7.50;4.20;;;;;;;;;;5096333;28;20016;-85
2023/01/05 09:46:20;;;;;;;6.93;3.75;;;;;;;;;;5101072;28;20117;-85
2023/01/05 09:48:48;;;;;;;;;;;;;;;;;;5098523;28;20235;-88
2023/01/05 09:51:13;;;;;;;6.53;4.32;;;;;;;;;;5082273;28;19918;-83
2023/01/05 09:53:39;;;;;;;7.25;4.90;;;;;;;;;;5099525;28;20430;-87
2023/01/05 09:56:11;;;;;;;5.55;3.13;;;;;;;;;;5082009;28;20019;-88
2023/01/05 09:58:40;;;;;;;7.65;4.45;;;;;;;;;;5082621;28;20031;-86
2023/01/05 10:01:13;;;;;;;5.50;3.70;;;;;;;;;;5098731;28;20463;-87
2023/01/05 10:03:57;;;;;;;6.32;4.50;;;;;;;;;;5081573;28;20463;-86
2023/01/05 10:06:27;;;;;;;5.97;4.63;;;;;;;;;;5082863;28;20029;-86
2023/01/05 10:08:54;;;;;;;;;;;;;;;;;;5086774;28;20031;-88
2023/01/05 10:14:16;;;;;;;4.38;3.08;;;;;;;;;;5102786;28;20557;-86
2023/01/05 10:16:44;;;;;;;14.32;4.90;;;;;;;;;;5086783;28;20046;-85
2023/01/05 10:19:13;;;;;;;7.25;4.30;;;;;;;;;;5103838;28;20051;-86
2023/01/05 10:21:57;;;;;;;6.22;3.80;;;;;;;;;;5080585;28;20038;-86
2023/01/05 10:24:22;;;;;;;10.73;3.92;;;;;;;;;;5102940;28;20077;-86
2023/01/05 10:27:03;;;;;;;5.90;3.70;;;;;;;;;;5082544;28;20028;-85
2023/01/05 10:29:46;;;;;;;7.35;4.57;;;;;;;;;;5101848;28;20031;-85
2023/01/05 10:32:36;;;;;;;8.93;5.60;;;;;;;;;;5081432;28;20024;-87
2023/01/05 10:35:22;;;;;;;7.03;4.47;;;;;;;;;;5102835;28;20025;-86
2023/01/05 10:38:21;;;;;;;7.32;4.53;;;;;;;;;;5084598;28;20035;-86
2023/01/05 10:41:15;;;;;;;6.43;4.63;;;;;;;;;;5100034;28;20399;-84
2023/01/05 10:44:00;;;;;;;6.32;3.78;;;;;;;;;;5077469;28;20031;-86
2023/01/05 10:46:25;;;;;;;5.65;3.70;;;;;;;;;;5081963;28;20028;-85
2023/01/05 10:48:51;;;;;;;5.65;4.07;;;;;;;;;;5084041;28;20073;-86
2023/01/05 10:51:17;;;;;;;7.30;3.63;;;;;;;;;;5103738;28;20043;-88
2023/01/05 10:53:43;;;;;;;3.80;2.83;;;;;;;;;;5087887;28;20032;-85
2023/01/05 10:56:14;;;;;;;6.32;3.03;;;;;;;;;;5103067;28;20020;-85
2023/01/05 10:58:42;;;;;;;5.47;3.72;;;;;;;;;;5084834;28;20016;-85
2023/01/05 11:01:29;;;;;;;5.03;3.10;;;;;;;;;;5082531;28;20043;-85
2023/01/05 11:04:17;;;;;;;9.30;3.58;;;;;;;;;;5103965;28;20482;-85
2023/01/05 11:06:43;;;;;;;7.07;3.97;;;;;;;;;;5104899;27;20066;-86
2023/01/05 11:09:12;;;;;;;5.43;3.67;;;;;;;;;;5084502;28;20102;-86
2023/01/05 11:11:38;;;;;;;6.93;4.22;;;;;;;;;;5080975;28;20023;-85
2023/01/05 11:14:05;;;;;;;9.73;3.92;;;;;;;;;;5080410;28;20107;-84
2023/01/05 11:16:34;;;;;;;5.95;3.53;;;;;;;;;;5084683;28;20031;-85
2023/01/05 11:19:00;;;;;;;7.60;3.92;;;;;;;;;;5105602;28;20015;-85
2023/01/05 11:21:27;;;;;;;12.13;5.15;;;;;;;;;;5084821;28;20034;-86
2023/01/05 11:23:58;;;;;;;6.93;4.47;;;;;;;;;;5082341;28;20084;-85
2023/01/05 11:26:28;;;;;;;6.25;4.18;;;;;;;;;;5087741;28;20031;-84
2023/01/05 11:29:09;;;;;;;7.68;4.28;;;;;;;;;;5102338;28;20048;-85
2023/01/05 11:31:55;;;;;;;8.75;4.82;;;;;;;;;;5080334;28;20038;-86
2023/01/05 11:34:40;;;;;;;8.50;5.63;;;;;;;;;;5079522;28;20031;-86
2023/01/05 11:37:08;;;;;;;5.72;3.65;;;;;;;;;;5119820;27;20462;-86
2023/01/05 11:39:47;;;;;;;6.97;3.40;;;;;;;;;;5100491;28;20483;-85
2023/01/05 11:42:14;;;;;;;6.03;3.80;;;;;;;;;;5104701;28;20039;-86
2023/01/05 11:44:43;;;;;;;11.88;5.35;;;;;;;;;;5084877;28;20111;-86
2023/01/05 11:47:22;;;;;;;6.47;4.43;;;;;;;;;;5104853;28;20032;-86
2023/01/05 11:49:49;;;;;;;10.38;7.05;;;;;;;;;;5080764;28;20035;-87
2023/01/05 11:52:27;;;;;;;26.75;12.77;;;;;;;;;;5101565;28;20020;-85
2023/01/05 11:54:52;;;;;;;21.35;10.68;;;;;;;;;;5082498;28;20047;-86
2023/01/05 11:57:21;;;;;;;8.25;4.78;;;;;;;;;;5083205;28;20475;-86
2023/01/05 11:59:47;;;;;;;8.48;4.60;;;;;;;;;;5085223;28;20032;-86
2023/01/05 12:02:44;;;;;;;8.20;4.05;;;;;;;;;;5084618;28;20127;-84
2023/01/05 12:05:27;;;;;;;4.70;3.22;;;;;;;;;;5104701;28;20439;-85
2023/01/05 12:08:00;;;;;;;6.63;3.35;;;;;;;;;;5086222;28;20122;-84
2023/01/05 12:10:59;;;;;;;5.10;3.20;;;;;;;;;;5082595;28;20368;-85
2023/01/05 12:14:03;;;;;;;6.28;3.63;;;;;;;;;;5077295;28;20023;-86
2023/01/05 12:16:45;;;;;;;5.43;3.47;;;;;;;;;;5041898;28;20028;-85
2023/01/05 12:19:25;;;;;;;10.10;4.28;;;;;;;;;;5086436;28;20524;-85
2023/01/05 12:22:11;;;;;;;4.43;3.00;;;;;;;;;;5083895;28;20034;-89
2023/01/05 12:25:07;;;;;;;4.22;2.83;;;;;;;;;;5043667;28;22122;-86
2023/01/05 12:28:01;;;;;;;8.35;3.60;;;;;;;;;;5080125;28;20621;-85
2023/01/05 12:30:34;;;;;;;6.57;3.88;;;;;;;;;;5081399;28;20123;-85
2023/01/05 12:33:20;;;;;;;5.68;2.92;;;;;;;;;;5098842;28;20023;-87
2023/01/05 12:36:32;;;;;;;5.53;3.13;;;;;;;;;;5102574;28;20019;-85
2023/01/05 12:39:09;;;;;;;5.68;3.50;;;;;;;;;;5086854;28;20510;-86
2023/01/05 12:41:37;;;;;;;5.60;3.35;;;;;;;;;;5094026;28;20048;-85
2023/01/05 12:44:24;;;;;;;7.85;4.93;;;;;;;;;;5102556;28;20473;-87
2023/01/05 12:46:58;;;;;;;9.05;4.85;;;;;;;;;;5098719;28;20020;-88
2023/01/05 12:49:29;;;;;;;6.93;3.85;;;;;;;;;;5099038;28;20432;-88
2023/01/05 12:52:05;;;;;;;3.95;2.60;;;;;;;;;;5104028;28;20062;-86
2023/01/05 12:54:40;;;;;;;2.45;1.85;;;;;;;;;;5095452;28;20059;-85
2023/01/05 12:57:13;;;;;;;4.18;2.33;;;;;;;;;;5096084;28;20028;-87
2023/01/05 12:59:51;;;;;;;4.82;2.95;;;;;;;;;;5100268;28;20039;-86
2023/01/05 13:02:21;;;;;;;2.05;1.80;;;;;;;;;;5081755;28;20024;-86
2023/01/05 13:05:06;;;;;;;;;;;;;;;;;;5100339;28;20031;-86
2023/01/05 13:07:41;;;;;;;9.27;2.40;;;;;;;;;;5099993;28;20318;-86
2023/01/05 13:10:19;;;;;;;4.35;3.17;;;;;;;;;;5078042;28;20026;-85
2023/01/05 13:12:47;;;;;;;4.72;2.80;;;;;;;;;;5095385;28;20031;-85
2023/01/05 13:15:25;;;;;;;5.28;3.00;;;;;;;;;;5094990;28;20020;-87
2023/01/05 13:17:53;;;;;;;5.43;2.83;;;;;;;;;;5074207;28;20031;-86
2023/01/05 13:20:57;;;;;;;3.42;1.98;;;;;;;;;;5096562;28;20063;-86
2023/01/05 13:23:46;;;;;;;5.00;2.58;;;;;;;;;;5056579;28;20047;-85
2023/01/05 13:26:16;;;;;;;5.78;3.40;;;;;;;;;;5109661;28;20028;-85
2023/01/05 13:28:45;;;;;;;4.10;2.03;;;;;;;;;;5090468;28;20774;-85
2023/01/05 13:31:29;;;;;;;3.57;2.50;;;;;;;;;;5095412;28;20036;-84
2023/01/05 13:34:21;;;;;;;4.38;2.45;;;;;;;;;;5099148;28;20414;-85
2023/01/05 13:37:07;;;;;;;3.28;2.22;;;;;;;;;;5104903;28;20491;-86
2023/01/05 13:39:51;;;;;;;4.65;2.78;;;;;;;;;;5092124;28;20094;-86
2023/01/05 13:42:47;;;;;;;1.60;1.35;;;;;;;;;;5096345;28;20467;-84
2023/01/05 13:45:36;;;;;;;3.47;2.13;;;;;;;;;;5098663;28;20476;-85
2023/01/05 13:48:28;;;;;;;3.80;1.67;;;;;;;;;;5078499;28;20027;-86
2023/01/05 13:51:18;;;;;;;3.83;2.20;;;;;;;;;;5084470;28;20081;-85
2023/01/05 13:53:45;;;;;;;4.00;2.45;;;;;;;;;;5099304;28;20077;-86
2023/01/05 13:56:26;;;;;;;6.85;2.47;;;;;;;;;;5089939;28;20367;-85
2023/01/05 13:58:59;;;;;;;2.72;2.13;;;;;;;;;;5105654;28;20057;-85
2023/01/05 14:01:36;;;;;;;6.10;2.95;;;;;;;;;;5100187;28;20357;-84
2023/01/05 14:04:02;;;;;;;5.15;2.33;;;;;;;;;;5102475;28;20024;-85
2023/01/05 14:06:35;;;;;;;2.90;2.20;;;;;;;;;;5104319;28;20475;-84
2023/01/05 14:09:22;;;;;;;3.33;2.38;;;;;;;;;;5080816;28;20024;-85
2023/01/05 14:12:14;;;;;;;4.85;3.13;;;;;;;;;;5099018;28;20030;-85
2023/01/05 14:14:58;;;;;;;3.65;2.72;;;;;;;;;;5103573;28;20046;-84
2023/01/05 14:17:49;;;;;;;4.78;3.35;;;;;;;;;;5101653;28;20505;-83
2023/01/05 14:20:42;;;;;;;4.43;2.25;;;;;;;;;;5090879;28;20067;-86
2023/01/05 14:23:22;;;;;;;4.10;2.45;;;;;;;;;;5069614;28;20482;-86
2023/01/05 14:26:01;;;;;;;4.15;2.15;;;;;;;;;;5102627;28;20077;-85
2023/01/05 14:28:29;;;;;;;3.95;2.78;;;;;;;;;;5076958;28;20051;-85
2023/01/05 14:31:07;;;;;;;7.05;3.92;;;;;;;;;;5077805;28;20020;-86
2023/01/05 14:33:44;;;;;;;6.00;2.60;;;;;;;;;;5078980;28;20081;-85
2023/01/05 14:36:43;;;;;;;3.42;2.28;;;;;;;;;;5091170;28;20024;-88
2023/01/05 14:39:18;;;;;;;6.60;3.50;;;;;;;;;;5070949;28;20475;-88
2023/01/05 14:41:56;;;;;;;3.72;1.80;;;;;;;;;;5082620;28;20028;-86
2023/01/05 14:44:28;;;;;;;2.40;2.05;;;;;;;;;;5103532;28;20129;-86
2023/01/05 14:46:55;;;;;;;2.40;1.75;;;;;;;;;;5102933;28;20099;-87
2023/01/05 14:49:24;;;;;;;4.85;2.78;;;;;;;;;;5086379;28;20475;-87
2023/01/05 14:51:55;;;;;;;3.60;2.80;;;;;;;;;;5101523;28;20016;-88
2023/01/05 14:54:58;;;;;;;2.92;2.13;;;;;;;;;;5079814;28;20029;-90
2023/01/05 14:57:24;;;;;;;2.70;1.83;;;;;;;;;;5092346;28;20032;-88
2023/01/05 14:59:56;;;;;;;3.60;1.85;;;;;;;;;;5084186;28;20053;-88
2023/01/05 15:02:28;;;;;;;2.28;1.55;;;;;;;;;;5105949;28;20036;-86
2023/01/05 15:05:00;;;;;;;2.45;1.70;;;;;;;;;;5088658;28;20766;-88
2023/01/05 15:07:49;;;;;;;5.53;2.80;;;;;;;;;;5099574;28;20384;-88
2023/01/05 15:10:42;;;;;;;2.67;2.13;;;;;;;;;;5101726;28;20027;-88
2023/01/05 15:13:29;;;;;;;4.50;2.03;;;;;;;;;;5084102;28;20027;-88
2023/01/05 15:16:03;;;;;;;2.58;1.80;;;;;;;;;;5119798;27;20031;-88
2023/01/05 15:18:44;;;;;;;4.38;3.15;;;;;;;;;;5074604;28;20093;-89
2023/01/05 15:21:48;;;;;;;3.25;2.42;;;;;;;;;;5117470;27;20525;-87
2023/01/05 15:24:43;;;;;;;2.47;2.03;;;;;;;;;;5082616;28;20035;-86
2023/01/05 15:27:28;;;;;;;1.52;1.38;;;;;;;;;;5102306;28;20023;-88
2023/01/05 15:30:30;;;;;;;3.03;2.17;;;;;;;;;;5102795;28;20471;-87
2023/01/05 15:33:29;;;;;;;3.42;2.08;;;;;;;;;;5082384;28;20032;-91
2023/01/05 15:36:00;;;;;;;1.77;1.52;;;;;;;;;;5084198;28;20031;-85
2023/01/05 15:38:28;;;;;;;3.15;2.10;;;;;;;;;;5104067;28;20047;-86
2023/01/05 15:40:59;;;;;;;3.28;2.05;;;;;;;;;;5094183;28;20484;-84
2023/01/05 15:43:24;;;;;;;4.53;2.25;;;;;;;;;;5099636;28;20020;-85
2023/01/05 15:45:52;;;;;;;3.05;2.20;;;;;;;;;;5086077;28;20032;-85
2023/01/05 15:48:32;;;;;;;3.55;1.90;;;;;;;;;;5095659;28;20425;-84
2023/01/05 15:50:57;;;;;;;;;;;;;;;;;;5097137;28;20502;-83